Weather observations for the past three days for
Valparaiso Porter County Municipal Airport
Imperial (Metric)
Date Time (cdt) Wind (mph) Vis. (mi.) Weather Sky Cond. Temperature (ºF) Relative Humidity Wind Chill (°F) Heat Index (°F) Pressure Precipitation (in)
Air Dwpt 6 hour altimeter (in) sea level (mb) 1 hr 3 hr 6 hr
Max. Min.
03 01:56 SW 7 10.00 Fair CLR 78.1 73.9 87% 81 29.96 1013.6
02 23:56 SW 6 10.00 Fair CLR 80.1 75 85% 85 29.95 1013.6
02 22:56 SW 6 10.00 Fair CLR 81 75 82% 87 29.95 1013.6
02 21:56 SW 7 10.00 Fair CLR 82 75 79% 89 29.95 1013.6
02 20:56 SW 6 10.00 Fair CLR 82.9 75 77% 90 29.95 1013.5
02 19:56 SW 8 10.00 Fair CLR 84.9 75.9 75% 94 29.94 1013.1
02 18:56 SW 8 10.00 A Few Clouds FEW110 88 75 93 88 66% 98 29.94 1013.1
02 17:56 W 10 10.00 Fair CLR 91 73.9 57% 101 29.94 1013.2
02 16:56 SW 9 10.00 Fair CLR 91.9 73.9 56% 102 29.94 1013.3
02 15:56 SW 9 10.00 Fair CLR 93 73 52% 102 29.95 1013.5
02 14:56 SW 10 10.00 Fair CLR 93 73.9 54% 103 29.97 1013.9
02 13:56 SW 10 10.00 Fair CLR 91.9 73.9 56% 102 29.98 1014.5
02 12:56 SW 8 G 20 10.00 Fair CLR 90 73 90 73.9 58% 98 29.99 1014.8
02 11:56 SW 9 10.00 Fair CLR 88 73.9 63% 97 30 1015.1
02 10:56 S 8 10.00 Fair CLR 86 73.9 67% 94 30 1015.2
02 09:56 S 8 10.00 Fair CLR 82.9 73.9 74% 89 30 1015.1
02 08:56 SW 8 10.00 A Few Clouds FEW085 80.1 72 76% 84 30.01 1015.4
02 07:56 SW 8 10.00 Fair CLR 77 70 79% 79 30.01 1015.7
02 06:56 SW 5 10.00 Fair CLR 73.9 70 78.1 73 88% 30.01 1015.7
02 05:56 SW 5 10.00 Fair CLR 73.9 70 88% 30 1015.3
02 04:56 Calm 10.00 Fair CLR 73.9 70 88% 30 1015.1
02 03:56 SW 5 10.00 Fair CLR 75.9 71.1 85% 76 30 1015.0
02 02:56 SW 6 10.00 Fair CLR 77 72 85% 78 29.99 1014.7
02 01:56 SW 8 10.00 Fair CLR 77 72 85% 78 29.99 1014.7
02 00:56 SW 8 10.00 Fair CLR 78.1 73 88 78.1 85% 81 29.99 1014.7
01 23:56 SW 8 10.00 Fair CLR 79 73 82% 82 29.99 1014.9
01 22:56 SW 7 10.00 Fair CLR 80.1 73.9 82% 85 30 1015.0
01 21:56 SW 7 10.00 Fair CLR 81 75.9 85% 87 30 1015.0
01 20:56 SW 7 10.00 Fair CLR 82.9 75.9 79% 91 29.98 1014.6
01 19:56 S 5 10.00 Partly Cloudy SCT085 84.9 78.1 80% 97 29.97 1014.3
01 18:56 S 3 10.00 Mostly Cloudy BKN090 88 79 91 88 75% 103 29.97 1014.2
01 17:56 S 6 10.00 Mostly Cloudy BKN090 91 77 64% 105 29.97 1014.3
01 16:56 SW 8 10.00 Fair CLR 90 77 66% 103 29.98 1014.3
01 14:56 SW 8 10.00 Fair CLR 91 75 59% 102 29.99 1014.7
01 13:56 SW 8 10.00 Fair CLR 89.1 75.9 65% 100 30 1015.0
01 12:56 SW 10 10.00 Fair CLR 87.1 75.9 88 73 70% 98 30.01 1015.4 0.01
01 11:56 SW 9 10.00 A Few Clouds FEW120 86 75 70% 95 30.01 1015.6
01 10:56 SW 7 10.00 Fair CLR 82 73.9 77% 88 30.01 1015.6
01 09:56 SW 9 10.00 Fair CLR 81 73 77% 86 30.01 1015.4 0.01
01 08:56 SW 6 10.00 Fair CLR 75.9 72 88% 76 30.01 1015.7
01 07:56 SW 6 8.00 Light Rain FEW036 FEW070 BKN110 73 71.1 94% 30.02 1015.9 0.01
01 06:56 SW 12 5.00 Thunderstorm Light Rain Fog/Mist FEW050 BKN100 73.9 71.1 77 73 91% 30.01 1015.6 0.11 0.12
01 05:56 W 9 10.00 Thunderstorm in Vicinity BKN110 75 70 84% 75 30 1015.2
01 04:56 SW 9 10.00 A Few Clouds FEW090 FEW120 75 70 84% 75 29.98 1014.6 0.01
01 03:56 SW 10 10.00 Fair CLR 75.9 69.1 79% 77 29.98 1014.4
01 02:56 W 10 10.00 Fair CLR 75.9 69.1 79% 77 29.97 1014.1
01 01:56 SW 8 10.00 Fair CLR 75.9 69.1 79% 77 29.96 1013.9
01 00:56 SW 10 10.00 Fair CLR 77 69.1 84 77 77% 79 29.97 1014.0 0.04
31 23:56 SW 10 10.00 Fair CLR 77 69.1 77% 79 29.97 1014.2
31 22:56 SW 8 10.00 Fair CLR 77 70 79% 79 29.97 1014.3
31 21:56 SW 6 10.00 Fair CLR 78.1 71.1 79% 80 29.98 1014.6 0.04
31 20:56 SW 8 10.00 Fair CLR 80.1 72 76% 84 29.98 1014.5
31 19:56 S 14 10.00 Thunderstorm in Vicinity FEW029 FEW075 BKN110 79 72 79% 82 29.95 1013.7 0.04
31 17:56 SW 5 10.00 Mostly Cloudy BKN110 88 71.1 57% 94 29.97 1014.3
31 16:56 S 13 10.00 Fair CLR 89.1 71.1 55% 95 29.96 1013.8
31 15:56 S 12 G 22 10.00 Fair CLR 90 70 52% 95 29.95 1013.3
31 14:56 S 14 G 23 10.00 Fair CLR 89.1 69.1 52% 94 29.97 1014.1
31 13:56 S 12 10.00 Fair CLR 88 69.1 54% 92 29.98 1014.4
31 12:56 S 10 10.00 Fair CLR 84.9 69.1 84.9 71.1 59% 89 30 1015.2
31 11:56 S 9 10.00 Fair CLR 80.1 69.1 69% 83 30.03 1016.4
31 10:56 S 9 10.00 Partly Cloudy FEW100 SCT110 75 68 79% 76 30.04 1016.8
31 09:56 S 6 9.00 Light Rain FEW041 SCT080 BKN120 72 66.9 84% 30.05 1017.0
31 08:56 SW 7 10.00 Mostly Cloudy FEW060 SCT100 BKN120 73 66 79% 30.05 1017.0
31 07:56 SW 6 10.00 A Few Clouds FEW100 72 64.9 79% 30.04 1016.7
31 06:56 S 5 10.00 Fair CLR 71.1 64.9 73.9 71.1 81% 30.01 1015.7
31 05:56 S 7 10.00 Fair CLR 72 64.9 79% 30 1015.2
31 04:56 S 5 10.00 Fair CLR 71.1 66 84% 30 1015.4
31 03:56 S 6 10.00 Fair CLR 71.1 66.9 87% 30 1015.4
31 02:56 S 3 10.00 Fair CLR 72 68 87% 30 1015.4
Date Time (cdt) Wind (mph) Vis. (mi.) Weather Sky Cond. Air Dwpt Max. Min. Relative Humidity Wind Chill (°F) Heat Index (°F) altimeter (in) sea level (mb) 1 hr 3 hr 6 hr
6 hour
Temperature (ºF) Pressure Precipitation (in)